Time;durP1;ratioP1;P1;durP2;ratioP2;P2;SDS_P1;SDS_P2;PMS_P1;PMS_P2;Temp;Humidity;BMP_temperature;BMP_pressure;BME280_temperature;BME280_humidity;BME280_pressure;Samples;Min_cycle;Max_cycle;Signal;HPM_P1;HPM_P2
2022/05/30 00:00:16;;;;;;;3.30;3.00;;;;;;;;;;512364;28;1423;-80
2022/05/30 00:00:32;;;;;;;3.33;2.83;;;;;;;;;;514706;28;1424;-81
2022/05/30 00:00:47;;;;;;;3.28;2.80;;;;;;;;;;516401;28;1532;-80
2022/05/30 00:01:06;;;;;;;3.20;2.90;;;;;;;;;;515642;28;1662;-80
2022/05/30 00:01:22;;;;;;;3.20;2.90;;;;;;;;;;516070;28;1480;-80
2022/05/30 00:01:38;;;;;;;3.20;2.90;;;;;;;;;;515646;28;1437;-80
2022/05/30 00:01:53;;;;;;;3.60;2.97;;;;;;;;;;516785;28;1550;-80
2022/05/30 00:02:10;;;;;;;4.13;3.00;;;;;;;;;;516146;28;1547;-80
2022/05/30 00:02:26;;;;;;;3.60;2.85;;;;;;;;;;514200;28;1575;-80
2022/05/30 00:02:42;;;;;;;3.28;2.80;;;;;;;;;;513474;28;1366;-80
2022/05/30 00:02:57;;;;;;;3.45;3.00;;;;;;;;;;514339;28;1535;-80
2022/05/30 00:03:14;;;;;;;3.30;3.00;;;;;;;;;;514167;28;1433;-80
2022/05/30 00:03:29;;;;;;;3.25;2.85;;;;;;;;;;514988;28;1514;-80
2022/05/30 00:03:45;;;;;;;3.50;2.90;;;;;;;;;;514150;28;1452;-80
2022/05/30 00:04:01;;;;;;;3.22;2.80;;;;;;;;;;515542;28;1705;-80
2022/05/30 00:04:16;;;;;;;3.10;2.80;;;;;;;;;;516394;28;1551;-80
2022/05/30 00:04:31;;;;;;;3.00;2.70;;;;;;;;;;517361;28;1499;-80
2022/05/30 00:04:47;;;;;;;2.95;2.70;;;;;;;;;;519130;28;1613;-80
2022/05/30 00:05:02;;;;;;;3.40;2.80;;;;;;;;;;521093;28;1608;-80
2022/05/30 00:05:20;;;;;;;3.55;2.90;;;;;;;;;;520553;28;1750;-80
2022/05/30 00:05:37;;;;;;;3.30;3.00;;;;;;;;;;520414;28;1631;-80
2022/05/30 00:05:53;;;;;;;3.20;2.90;;;;;;;;;;520741;28;1563;-80
2022/05/30 00:06:14;;;;;;;3.10;2.80;;;;;;;;;;518101;28;1745;-80
2022/05/30 00:06:30;;;;;;;3.40;2.50;;;;;;;;;;518058;28;1580;-80
2022/05/30 00:06:45;;;;;;;4.07;2.70;;;;;;;;;;515902;28;1377;-80
2022/05/30 00:07:00;;;;;;;3.70;3.00;;;;;;;;;;514274;28;1461;-80
2022/05/30 00:07:16;;;;;;;3.17;2.80;;;;;;;;;;514129;28;1730;-80
2022/05/30 00:07:31;;;;;;;3.10;2.70;;;;;;;;;;516065;28;1328;-80
2022/05/30 00:07:47;;;;;;;3.05;2.67;;;;;;;;;;516537;28;1373;-80
2022/05/30 00:08:03;;;;;;;3.20;2.67;;;;;;;;;;516397;28;1479;-80
2022/05/30 00:08:19;;;;;;;3.33;2.83;;;;;;;;;;517295;28;1520;-80
2022/05/30 00:08:34;;;;;;;3.42;2.80;;;;;;;;;;518883;28;1528;-80
2022/05/30 00:08:50;;;;;;;3.25;2.80;;;;;;;;;;519636;28;1536;-80
2022/05/30 00:09:05;;;;;;;3.13;2.83;;;;;;;;;;521609;28;1556;-80
2022/05/30 00:09:21;;;;;;;3.17;2.80;;;;;;;;;;522486;28;1504;-80
2022/05/30 00:09:36;;;;;;;3.60;2.83;;;;;;;;;;520897;28;1639;-80
2022/05/30 00:09:52;;;;;;;3.70;2.70;;;;;;;;;;520789;28;1462;-80
2022/05/30 00:10:09;;;;;;;3.53;2.70;;;;;;;;;;520815;28;1610;-80
2022/05/30 00:10:25;;;;;;;4.65;2.90;;;;;;;;;;518696;28;1501;-80
2022/05/30 00:10:41;;;;;;;4.57;2.97;;;;;;;;;;516939;28;1446;-80
2022/05/30 00:11:01;;;;;;;3.65;2.80;;;;;;;;;;514864;28;1706;-80
2022/05/30 00:11:17;;;;;;;3.53;2.70;;;;;;;;;;514469;28;2031;-80
2022/05/30 00:11:33;;;;;;;3.00;2.70;;;;;;;;;;516127;28;1662;-80
2022/05/30 00:11:50;;;;;;;3.00;2.70;;;;;;;;;;514961;28;1614;-81
2022/05/30 00:12:05;;;;;;;3.40;2.72;;;;;;;;;;512999;28;1436;-80
2022/05/30 00:12:21;;;;;;;3.33;2.80;;;;;;;;;;512533;28;1497;-80
2022/05/30 00:12:37;;;;;;;3.65;2.90;;;;;;;;;;512874;28;1473;-80
2022/05/30 00:12:54;;;;;;;3.90;2.90;;;;;;;;;;512813;28;1457;-80
2022/05/30 00:13:09;;;;;;;3.67;2.90;;;;;;;;;;510818;28;1919;-80
2022/05/30 00:13:25;;;;;;;3.65;2.88;;;;;;;;;;510835;28;1625;-80
2022/05/30 00:13:40;;;;;;;3.70;2.80;;;;;;;;;;512977;28;1454;-80
2022/05/30 00:13:56;;;;;;;3.40;2.90;;;;;;;;;;513112;28;1512;-80
2022/05/30 00:14:11;;;;;;;3.38;3.08;;;;;;;;;;515400;28;1699;-80
2022/05/30 00:14:26;;;;;;;3.20;2.90;;;;;;;;;;517123;28;1519;-80
2022/05/30 00:14:42;;;;;;;2.97;2.70;;;;;;;;;;519362;28;1515;-80
2022/05/30 00:14:57;;;;;;;3.20;2.90;;;;;;;;;;521215;28;1598;-80
2022/05/30 00:15:16;;;;;;;3.40;3.07;;;;;;;;;;521009;28;1415;-80
2022/05/30 00:15:32;;;;;;;3.97;3.10;;;;;;;;;;521002;28;1517;-80
2022/05/30 00:15:47;;;;;;;3.30;2.97;;;;;;;;;;518649;28;1535;-80
2022/05/30 00:16:11;;;;;;;3.30;3.00;;;;;;;;;;518708;28;1515;-80
2022/05/30 00:16:27;;;;;;;3.30;3.00;;;;;;;;;;516834;28;1444;-80
2022/05/30 00:16:42;;;;;;;2.90;2.70;;;;;;;;;;516849;28;1689;-80
2022/05/30 00:16:58;;;;;;;3.07;2.80;;;;;;;;;;514925;28;1795;-80
2022/05/30 00:17:13;;;;;;;3.30;2.83;;;;;;;;;;516580;28;1581;-80
2022/05/30 00:17:30;;;;;;;3.30;2.87;;;;;;;;;;514687;28;1436;-80
2022/05/30 00:17:45;;;;;;;3.20;2.90;;;;;;;;;;514135;28;1683;-80
2022/05/30 00:18:00;;;;;;;3.13;2.83;;;;;;;;;;516281;28;1618;-80
2022/05/30 00:18:16;;;;;;;3.10;2.80;;;;;;;;;;516121;28;1619;-80
2022/05/30 00:18:31;;;;;;;3.47;2.90;;;;;;;;;;517984;28;1463;-80
2022/05/30 00:18:46;;;;;;;3.83;2.87;;;;;;;;;;516319;28;1543;-80
2022/05/30 00:19:02;;;;;;;3.33;2.78;;;;;;;;;;517875;28;1534;-80
2022/05/30 00:19:18;;;;;;;3.03;2.70;;;;;;;;;;516101;28;1496;-80
2022/05/30 00:19:40;;;;;;;3.45;2.80;;;;;;;;;;518357;28;1353;-80
2022/05/30 00:19:56;;;;;;;2.88;2.55;;;;;;;;;;515975;28;1606;-80
2022/05/30 00:20:12;;;;;;;3.00;2.70;;;;;;;;;;515705;28;1563;-80
2022/05/30 00:20:27;;;;;;;3.00;2.67;;;;;;;;;;516505;28;1421;-80
2022/05/30 00:20:45;;;;;;;3.10;2.50;;;;;;;;;;515650;28;1589;-80
2022/05/30 00:21:01;;;;;;;3.20;2.67;;;;;;;;;;515302;28;1454;-80
2022/05/30 00:21:21;;;;;;;3.08;2.70;;;;;;;;;;515108;28;1792;-81
2022/05/30 00:21:37;;;;;;;3.15;2.75;;;;;;;;;;514958;28;1433;-80
2022/05/30 00:21:55;;;;;;;3.40;2.90;;;;;;;;;;514726;28;1512;-80
2022/05/30 00:22:14;;;;;;;3.05;2.75;;;;;;;;;;515574;28;1543;-80
2022/05/30 00:22:29;;;;;;;4.65;2.92;;;;;;;;;;518398;28;1586;-80
2022/05/30 00:22:46;;;;;;;4.10;2.83;;;;;;;;;;520334;28;1525;-80
2022/05/30 00:23:01;;;;;;;3.10;2.78;;;;;;;;;;518989;28;1560;-80
2022/05/30 00:23:16;;;;;;;3.27;2.63;;;;;;;;;;516874;28;1451;-80
2022/05/30 00:23:32;;;;;;;2.95;2.60;;;;;;;;;;514644;28;1423;-80
2022/05/30 00:23:48;;;;;;;2.97;2.63;;;;;;;;;;514902;28;1454;-80
2022/05/30 00:24:04;;;;;;;3.47;2.80;;;;;;;;;;513052;28;1495;-80
2022/05/30 00:24:19;;;;;;;3.60;2.60;;;;;;;;;;512623;28;1584;-80
2022/05/30 00:24:35;;;;;;;3.60;2.60;;;;;;;;;;513721;28;1369;-80
2022/05/30 00:24:50;;;;;;;2.93;2.63;;;;;;;;;;514726;28;1654;-80
2022/05/30 00:25:07;;;;;;;3.10;2.80;;;;;;;;;;517249;28;1429;-80
2022/05/30 00:25:22;;;;;;;3.45;2.80;;;;;;;;;;517341;28;1545;-80
2022/05/30 00:25:42;;;;;;;3.47;2.70;;;;;;;;;;519071;28;1432;-80
2022/05/30 00:25:57;;;;;;;3.03;2.70;;;;;;;;;;517608;28;1456;-80
2022/05/30 00:26:13;;;;;;;3.00;2.70;;;;;;;;;;516253;28;1451;-80
2022/05/30 00:26:28;;;;;;;2.80;2.60;;;;;;;;;;515882;28;1710;-80
2022/05/30 00:26:44;;;;;;;2.80;2.60;;;;;;;;;;516447;28;1380;-80
2022/05/30 00:26:59;;;;;;;3.00;2.70;;;;;;;;;;516511;28;1525;-80
2022/05/30 00:27:15;;;;;;;2.85;2.65;;;;;;;;;;517376;28;1606;-79
2022/05/30 00:27:30;;;;;;;2.70;2.50;;;;;;;;;;518568;28;1518;-80
2022/05/30 00:27:46;;;;;;;2.92;2.50;;;;;;;;;;519091;28;1443;-80
2022/05/30 00:28:01;;;;;;;3.00;2.47;;;;;;;;;;520671;28;1598;-80
2022/05/30 00:28:17;;;;;;;2.70;2.50;;;;;;;;;;518419;28;1587;-80
2022/05/30 00:28:34;;;;;;;2.97;2.67;;;;;;;;;;516603;28;1796;-80
2022/05/30 00:28:50;;;;;;;2.85;2.50;;;;;;;;;;516853;28;1468;-80
2022/05/30 00:29:06;;;;;;;2.72;2.42;;;;;;;;;;517756;28;1476;-80
2022/05/30 00:29:22;;;;;;;2.88;2.58;;;;;;;;;;518783;28;1463;-81
2022/05/30 00:29:39;;;;;;;2.87;2.60;;;;;;;;;;519227;28;1419;-80
2022/05/30 00:29:54;;;;;;;2.85;2.60;;;;;;;;;;517775;28;1742;-81
2022/05/30 00:30:10;;;;;;;2.80;2.55;;;;;;;;;;515273;28;1417;-80
2022/05/30 00:30:26;;;;;;;3.30;2.53;;;;;;;;;;515983;28;1513;-81
2022/05/30 00:30:42;;;;;;;3.23;2.60;;;;;;;;;;515451;28;1497;-81
2022/05/30 00:30:57;;;;;;;2.65;2.45;;;;;;;;;;515847;28;1796;-81
2022/05/30 00:31:15;;;;;;;2.90;2.60;;;;;;;;;;514676;28;1601;-81
2022/05/30 00:31:31;;;;;;;2.92;2.63;;;;;;;;;;514871;28;1515;-81
2022/05/30 00:31:47;;;;;;;2.58;2.25;;;;;;;;;;513924;28;1508;-81
2022/05/30 00:32:03;;;;;;;2.75;2.40;;;;;;;;;;513759;28;1534;-81
2022/05/30 00:32:18;;;;;;;3.38;2.72;;;;;;;;;;514993;28;1467;-81
2022/05/30 00:32:34;;;;;;;3.13;2.70;;;;;;;;;;515626;28;1657;-80
2022/05/30 00:32:49;;;;;;;3.08;2.78;;;;;;;;;;516755;28;1347;-81
2022/05/30 00:33:05;;;;;;;3.23;2.80;;;;;;;;;;517318;28;1965;-81
2022/05/30 00:33:20;;;;;;;2.92;2.60;;;;;;;;;;516590;28;1459;-80
2022/05/30 00:33:37;;;;;;;2.60;2.40;;;;;;;;;;516845;28;1533;-81
2022/05/30 00:33:52;;;;;;;2.95;2.55;;;;;;;;;;514899;28;1466;-81
2022/05/30 00:34:08;;;;;;;3.00;2.70;;;;;;;;;;514350;28;1914;-81
2022/05/30 00:34:24;;;;;;;2.67;2.47;;;;;;;;;;514642;28;1453;-81
2022/05/30 00:34:39;;;;;;;2.70;2.50;;;;;;;;;;514993;28;1454;-80
2022/05/30 00:34:55;;;;;;;3.00;2.70;;;;;;;;;;514995;28;1551;-81
2022/05/30 00:35:12;;;;;;;3.40;2.60;;;;;;;;;;516641;28;1433;-81
2022/05/30 00:35:29;;;;;;;3.10;2.50;;;;;;;;;;514948;28;1573;-81
2022/05/30 00:35:46;;;;;;;3.42;2.40;;;;;;;;;;513262;28;1655;-80
2022/05/30 00:36:01;;;;;;;3.20;2.50;;;;;;;;;;515698;28;1425;-81
2022/05/30 00:36:17;;;;;;;3.10;2.80;;;;;;;;;;514600;28;1563;-81
2022/05/30 00:36:32;;;;;;;3.22;2.90;;;;;;;;;;514787;28;1445;-80
2022/05/30 00:36:48;;;;;;;3.50;2.80;;;;;;;;;;514680;28;1698;-81
2022/05/30 00:37:04;;;;;;;3.30;2.83;;;;;;;;;;515949;28;1440;-82
2022/05/30 00:37:19;;;;;;;2.95;2.65;;;;;;;;;;517756;28;1726;-80
2022/05/30 00:37:34;;;;;;;2.83;2.40;;;;;;;;;;517512;28;1401;-81
2022/05/30 00:37:50;;;;;;;2.97;2.33;;;;;;;;;;518748;28;1632;-81
2022/05/30 00:38:05;;;;;;;3.13;2.60;;;;;;;;;;519117;28;1513;-81
2022/05/30 00:38:21;;;;;;;2.93;2.60;;;;;;;;;;518943;28;1395;-81
2022/05/30 00:38:36;;;;;;;2.90;2.50;;;;;;;;;;518926;28;1538;-81
2022/05/30 00:38:52;;;;;;;2.83;2.50;;;;;;;;;;520745;28;1594;-81
2022/05/30 00:39:07;;;;;;;2.75;2.50;;;;;;;;;;521413;28;1387;-81
2022/05/30 00:39:22;;;;;;;2.87;2.53;;;;;;;;;;518740;28;1483;-81
2022/05/30 00:39:38;;;;;;;2.72;2.42;;;;;;;;;;517089;28;1369;-81
2022/05/30 00:39:54;;;;;;;2.60;2.40;;;;;;;;;;515033;28;1648;-81
2022/05/30 00:40:10;;;;;;;2.60;2.33;;;;;;;;;;514730;28;1417;-81
2022/05/30 00:40:26;;;;;;;2.60;2.40;;;;;;;;;;515022;28;1567;-81
2022/05/30 00:40:42;;;;;;;2.67;2.47;;;;;;;;;;515551;28;1460;-81
2022/05/30 00:40:57;;;;;;;2.60;2.40;;;;;;;;;;517352;28;1594;-81
2022/05/30 00:41:13;;;;;;;2.90;2.40;;;;;;;;;;517390;28;1955;-81
2022/05/30 00:41:28;;;;;;;2.88;2.33;;;;;;;;;;519415;28;1439;-80
2022/05/30 00:41:44;;;;;;;3.30;2.47;;;;;;;;;;518847;28;1658;-81
2022/05/30 00:42:15;;;;;;;3.13;2.55;;;;;;;;;;518744;28;1505;-81
2022/05/30 00:42:31;;;;;;;4.28;3.00;;;;;;;;;;519029;28;1546;-81
2022/05/30 00:42:47;;;;;;;4.18;3.00;;;;;;;;;;518820;28;1525;-81
2022/05/30 00:43:21;;;;;;;3.60;3.17;;;;;;;;;;519498;28;1883;-80
2022/05/30 00:43:39;;;;;;;4.78;3.20;;;;;;;;;;521066;28;1584;-81
2022/05/30 00:43:54;;;;;;;4.38;3.35;;;;;;;;;;518644;28;1498;-81
2022/05/30 00:44:10;;;;;;;3.80;3.20;;;;;;;;;;517211;28;1519;-81
2022/05/30 00:44:25;;;;;;;4.00;3.38;;;;;;;;;;517836;28;1482;-81
2022/05/30 00:44:42;;;;;;;3.70;3.30;;;;;;;;;;516652;28;1486;-81
2022/05/30 00:44:57;;;;;;;3.97;3.15;;;;;;;;;;517239;28;1574;-81
2022/05/30 00:45:13;;;;;;;4.30;3.10;;;;;;;;;;517263;28;1549;-81
2022/05/30 00:45:28;;;;;;;3.50;3.20;;;;;;;;;;515451;28;1468;-81
2022/05/30 00:45:43;;;;;;;3.87;3.47;;;;;;;;;;515433;28;1591;-80
2022/05/30 00:46:01;;;;;;;4.00;3.50;;;;;;;;;;515051;28;1793;-81
2022/05/30 00:46:19;;;;;;;4.00;3.60;;;;;;;;;;514715;28;1565;-81
2022/05/30 00:46:34;;;;;;;3.80;3.50;;;;;;;;;;513992;28;1440;-80
2022/05/30 00:46:49;;;;;;;3.60;3.30;;;;;;;;;;514040;28;1707;-81
2022/05/30 00:47:05;;;;;;;3.95;3.30;;;;;;;;;;514464;28;1629;-81
2022/05/30 00:47:22;;;;;;;4.30;3.40;;;;;;;;;;515101;28;1436;-81
2022/05/30 00:47:38;;;;;;;3.67;3.30;;;;;;;;;;516601;28;1507;-81
2022/05/30 00:47:53;;;;;;;3.55;3.20;;;;;;;;;;517456;28;1562;-81
2022/05/30 00:48:09;;;;;;;4.18;3.40;;;;;;;;;;518161;28;1453;-81
2022/05/30 00:48:37;;;;;;;3.83;3.43;;;;;;;;;;517262;28;1520;-81
2022/05/30 00:48:56;;;;;;;3.53;3.22;;;;;;;;;;517220;28;1464;-81
2022/05/30 00:49:13;;;;;;;3.80;3.45;;;;;;;;;;514761;28;1622;-81
2022/05/30 00:49:28;;;;;;;3.80;3.50;;;;;;;;;;514530;28;1748;-80
2022/05/30 00:49:46;;;;;;;4.10;3.70;;;;;;;;;;512056;28;1444;-81
2022/05/30 00:50:02;;;;;;;4.00;3.60;;;;;;;;;;514147;28;1560;-80
2022/05/30 00:50:18;;;;;;;4.07;3.67;;;;;;;;;;514980;28;1793;-81
2022/05/30 00:50:35;;;;;;;4.10;3.70;;;;;;;;;;515978;28;1685;-81
2022/05/30 00:50:54;;;;;;;3.90;3.60;;;;;;;;;;518029;28;1560;-81
2022/05/30 00:51:21;;;;;;;4.50;3.58;;;;;;;;;;520679;28;1486;-81
2022/05/30 00:51:44;;;;;;;5.18;3.60;;;;;;;;;;520931;28;1592;-81
2022/05/30 00:52:05;;;;;;;4.18;3.50;;;;;;;;;;520958;28;1489;-81
2022/05/30 00:52:28;;;;;;;4.35;3.50;;;;;;;;;;518697;28;1495;-81
2022/05/30 00:52:44;;;;;;;4.88;3.60;;;;;;;;;;519147;28;1571;-81
2022/05/30 00:53:00;;;;;;;4.07;3.50;;;;;;;;;;519221;28;1918;-81
2022/05/30 00:53:16;;;;;;;4.03;3.30;;;;;;;;;;516245;28;1466;-80
2022/05/30 00:53:33;;;;;;;4.13;3.47;;;;;;;;;;517284;28;1481;-81
2022/05/30 00:53:52;;;;;;;3.92;3.45;;;;;;;;;;517532;28;1475;-80
2022/05/30 00:54:11;;;;;;;3.60;3.30;;;;;;;;;;519227;28;1679;-81
2022/05/30 00:54:32;;;;;;;4.18;3.47;;;;;;;;;;518912;28;1480;-80
2022/05/30 00:55:00;;;;;;;3.45;3.15;;;;;;;;;;516342;28;1479;-80
2022/05/30 00:55:20;;;;;;;4.13;3.30;;;;;;;;;;518491;28;1565;-80
2022/05/30 00:55:35;;;;;;;3.58;3.10;;;;;;;;;;518446;28;1408;-80
2022/05/30 00:55:51;;;;;;;3.40;3.10;;;;;;;;;;516459;28;1495;-80
2022/05/30 00:56:09;;;;;;;3.50;3.20;;;;;;;;;;516687;28;1688;-80
2022/05/30 00:56:32;;;;;;;3.40;3.10;;;;;;;;;;518399;28;1454;-80
2022/05/30 00:56:52;;;;;;;3.20;2.90;;;;;;;;;;520806;28;1724;-80
2022/05/30 00:57:20;;;;;;;3.42;3.08;;;;;;;;;;518935;28;1590;-80
2022/05/30 00:57:38;;;;;;;3.15;2.85;;;;;;;;;;518922;28;1652;-80
2022/05/30 00:57:55;;;;;;;3.20;2.90;;;;;;;;;;521097;28;1554;-80
2022/05/30 00:58:13;;;;;;;3.30;3.00;;;;;;;;;;521186;28;1450;-80
2022/05/30 00:58:34;;;;;;;3.38;3.08;;;;;;;;;;520628;28;1458;-80
2022/05/30 00:58:51;;;;;;;3.33;2.92;;;;;;;;;;518821;28;1475;-80
2022/05/30 00:59:06;;;;;;;3.47;3.17;;;;;;;;;;517034;28;1431;-80
2022/05/30 00:59:22;;;;;;;3.73;3.03;;;;;;;;;;517489;28;1938;-81
2022/05/30 00:59:38;;;;;;;3.70;3.00;;;;;;;;;;516671;28;1694;-80
2022/05/30 00:59:57;;;;;;;3.25;2.95;;;;;;;;;;517208;28;1420;-80
2022/05/30 01:00:22;;;;;;;3.45;3.00;;;;;;;;;;516821;28;1451;-80
2022/05/30 01:00:38;;;;;;;3.78;3.10;;;;;;;;;;519469;28;1465;-80
2022/05/30 01:00:53;;;;;;;3.28;2.97;;;;;;;;;;518462;28;1548;-80
2022/05/30 01:01:09;;;;;;;3.47;3.17;;;;;;;;;;519449;28;1389;-80
2022/05/30 01:01:25;;;;;;;4.40;3.00;;;;;;;;;;518926;28;1583;-80
2022/05/30 01:01:40;;;;;;;4.10;2.90;;;;;;;;;;518747;28;1475;-80
2022/05/30 01:01:55;;;;;;;3.40;3.10;;;;;;;;;;519039;28;1845;-80
2022/05/30 01:02:11;;;;;;;3.23;2.80;;;;;;;;;;520958;28;1399;-80
2022/05/30 01:02:32;;;;;;;3.42;2.70;;;;;;;;;;521109;28;1587;-80
2022/05/30 01:06:30;;;;;;;3.50;2.70;;;;;;;;;;522215;28;1765;-80
2022/05/30 01:06:32;;;;;;;3.13;2.67;;;;;;;;;;520917;28;1602;-80
2022/05/30 01:06:49;;;;;;;3.53;2.70;;;;;;;;;;519868;28;1544;-80
2022/05/30 01:07:08;;;;;;;3.30;2.38;;;;;;;;;;519494;28;1547;-80
2022/05/30 01:07:24;;;;;;;2.65;2.33;;;;;;;;;;519991;28;1768;-80
2022/05/30 01:07:41;;;;;;;2.88;2.42;;;;;;;;;;519090;28;1407;-80
2022/05/30 01:07:57;;;;;;;2.70;2.42;;;;;;;;;;520805;28;1490;-80
2022/05/30 01:08:13;;;;;;;2.53;2.33;;;;;;;;;;520826;28;1430;-80
2022/05/30 01:08:31;;;;;;;2.60;2.40;;;;;;;;;;521289;28;1694;-80
2022/05/30 01:08:46;;;;;;;2.90;2.60;;;;;;;;;;518746;28;1562;-80
2022/05/30 01:09:07;;;;;;;2.85;2.45;;;;;;;;;;520398;28;1684;-81
2022/05/30 01:09:28;;;;;;;2.92;2.50;;;;;;;;;;521233;28;1466;-80
2022/05/30 01:09:45;;;;;;;2.83;2.53;;;;;;;;;;518496;28;1798;-80
2022/05/30 01:10:03;;;;;;;2.83;2.53;;;;;;;;;;519081;28;1438;-80
2022/05/30 01:10:21;;;;;;;3.05;2.75;;;;;;;;;;519120;28;1562;-80
2022/05/30 01:10:36;;;;;;;3.15;2.65;;;;;;;;;;519147;28;1462;-80
2022/05/30 01:10:51;;;;;;;3.90;2.53;;;;;;;;;;518708;28;1529;-80
2022/05/30 01:11:07;;;;;;;4.40;2.60;;;;;;;;;;519388;28;1418;-80
2022/05/30 01:11:22;;;;;;;3.63;2.60;;;;;;;;;;517222;28;1645;-80
2022/05/30 01:12:00;;;;;;;3.53;2.60;;;;;;;;;;516425;28;1479;-80
2022/05/30 01:12:15;;;;;;;3.97;2.70;;;;;;;;;;516965;28;1454;-80
2022/05/30 01:12:41;;;;;;;3.50;2.50;;;;;;;;;;518196;28;1896;-80
2022/05/30 01:12:58;;;;;;;3.22;2.45;;;;;;;;;;518938;28;1821;-80
2022/05/30 01:13:13;;;;;;;4.00;2.80;;;;;;;;;;519179;28;1926;-80
2022/05/30 01:13:28;;;;;;;3.73;2.70;;;;;;;;;;518876;28;1551;-80
2022/05/30 01:13:44;;;;;;;3.63;2.40;;;;;;;;;;518613;28;1584;-79
2022/05/30 01:13:59;;;;;;;3.20;2.50;;;;;;;;;;518628;28;1515;-80
2022/05/30 01:14:15;;;;;;;2.63;2.42;;;;;;;;;;518656;28;1797;-80
2022/05/30 01:14:36;;;;;;;2.60;2.20;;;;;;;;;;520762;28;1543;-80
2022/05/30 01:14:51;;;;;;;3.28;2.40;;;;;;;;;;520698;28;1666;-80
2022/05/30 01:15:10;;;;;;;3.40;2.50;;;;;;;;;;518931;28;2034;-80
2022/05/30 01:15:29;;;;;;;2.88;2.50;;;;;;;;;;518911;28;1400;-80
2022/05/30 01:15:45;;;;;;;2.70;2.50;;;;;;;;;;516810;28;1654;-80
2022/05/30 01:16:00;;;;;;;2.77;2.50;;;;;;;;;;516938;28;1521;-80
2022/05/30 01:16:16;;;;;;;2.80;2.50;;;;;;;;;;519529;28;1367;-80
2022/05/30 01:16:32;;;;;;;2.87;2.57;;;;;;;;;;518577;28;1558;-80
2022/05/30 01:16:48;;;;;;;3.53;2.80;;;;;;;;;;519080;28;1422;-80
2022/05/30 01:17:09;;;;;;;3.50;2.72;;;;;;;;;;520410;28;1466;-80
2022/05/30 01:17:25;;;;;;;3.05;2.60;;;;;;;;;;521032;28;1495;-79
2022/05/30 01:18:03;;;;;;;3.20;2.70;;;;;;;;;;520343;28;1527;-80
2022/05/30 01:18:55;;;;;;;3.70;2.63;;;;;;;;;;518937;28;1558;-80
2022/05/30 01:19:26;;;;;;;3.25;2.40;;;;;;;;;;512359;28;1576;-80
2022/05/30 01:19:59;;;;;;;3.40;2.53;;;;;;;;;;510577;29;1418;-80
2022/05/30 01:20:25;;;;;;;2.97;2.58;;;;;;;;;;511643;28;1655;-80
2022/05/30 01:20:51;;;;;;;2.97;2.60;;;;;;;;;;512682;28;1958;-80
2022/05/30 01:21:46;;;;;;;4.18;2.60;;;;;;;;;;512813;28;1386;-80
2022/05/30 01:22:38;;;;;;;3.15;2.70;;;;;;;;;;515610;28;1537;-80
2022/05/30 01:23:05;;;;;;;3.25;2.80;;;;;;;;;;518701;28;1775;-80
2022/05/30 01:23:48;;;;;;;3.40;2.80;;;;;;;;;;518594;28;1604;-80
2022/05/30 01:24:04;;;;;;;3.60;3.20;;;;;;;;;;521054;28;1490;-80
2022/05/30 01:24:29;;;;;;;3.35;3.05;;;;;;;;;;520791;28;1335;-80
2022/05/30 01:25:12;;;;;;;3.25;2.90;;;;;;;;;;521403;28;1426;-80
2022/05/30 01:26:04;;;;;;;3.10;2.80;;;;;;;;;;519360;28;1636;-80
2022/05/30 01:26:43;;;;;;;4.80;3.63;;;;;;;;;;518786;28;1543;-80
2022/05/30 01:27:17;;;;;;;4.20;3.47;;;;;;;;;;519104;28;1384;-80
2022/05/30 01:27:51;;;;;;;4.10;3.67;;;;;;;;;;520866;28;1572;-80
2022/05/30 01:28:34;;;;;;;4.40;4.00;;;;;;;;;;518809;28;1728;-80
2022/05/30 01:29:29;;;;;;;5.03;4.20;;;;;;;;;;520735;28;1405;-80
2022/05/30 01:29:49;;;;;;;5.25;4.75;;;;;;;;;;511999;28;1527;-80
2022/05/30 01:30:12;;;;;;;4.82;4.40;;;;;;;;;;513189;28;1476;-80
2022/05/30 01:30:27;;;;;;;4.90;4.40;;;;;;;;;;511449;28;1545;-80
2022/05/30 01:30:43;;;;;;;4.80;4.30;;;;;;;;;;511085;28;1568;-80
2022/05/30 01:30:58;;;;;;;5.00;4.33;;;;;;;;;;511147;29;1564;-80
2022/05/30 01:31:15;;;;;;;5.67;4.43;;;;;;;;;;511229;28;1350;-80
2022/05/30 01:31:31;;;;;;;5.05;4.35;;;;;;;;;;511079;28;1430;-80
2022/05/30 01:31:46;;;;;;;5.65;4.63;;;;;;;;;;510285;28;1493;-80
2022/05/30 01:32:01;;;;;;;6.83;4.80;;;;;;;;;;511464;28;1948;-80
2022/05/30 01:32:23;;;;;;;5.78;4.60;;;;;;;;;;511265;28;1576;-80
2022/05/30 01:32:38;;;;;;;5.68;4.50;;;;;;;;;;511450;28;1421;-80
2022/05/30 01:32:57;;;;;;;5.60;4.63;;;;;;;;;;511653;28;1551;-80
2022/05/30 01:33:13;;;;;;;5.65;4.70;;;;;;;;;;514706;28;1953;-80
2022/05/30 01:33:28;;;;;;;5.27;4.40;;;;;;;;;;513564;28;1566;-80
2022/05/30 01:33:44;;;;;;;5.07;4.50;;;;;;;;;;514646;28;1548;-80
2022/05/30 01:34:00;;;;;;;5.18;4.43;;;;;;;;;;515876;28;1620;-80
2022/05/30 01:34:22;;;;;;;5.25;4.28;;;;;;;;;;515553;28;1550;-80
2022/05/30 01:34:37;;;;;;;4.70;4.20;;;;;;;;;;516651;28;1518;-80
2022/05/30 01:34:52;;;;;;;4.80;4.30;;;;;;;;;;518768;28;1646;-80
2022/05/30 01:35:09;;;;;;;5.30;4.60;;;;;;;;;;517058;28;1443;-80
2022/05/30 01:35:26;;;;;;;5.50;4.75;;;;;;;;;;516380;28;1572;-80
2022/05/30 01:35:42;;;;;;;5.90;4.68;;;;;;;;;;516638;28;1566;-80
2022/05/30 01:35:58;;;;;;;5.50;4.68;;;;;;;;;;516775;28;1492;-80
2022/05/30 01:36:14;;;;;;;5.55;4.70;;;;;;;;;;516366;28;1490;-80
2022/05/30 01:36:31;;;;;;;6.03;4.77;;;;;;;;;;514835;28;1449;-80
2022/05/30 01:36:47;;;;;;;5.50;4.63;;;;;;;;;;513297;28;1458;-80
2022/05/30 01:37:02;;;;;;;5.23;4.57;;;;;;;;;;515061;28;1949;-80
2022/05/30 01:37:17;;;;;;;5.53;4.43;;;;;;;;;;514941;28;1444;-81
2022/05/30 01:37:33;;;;;;;4.97;4.23;;;;;;;;;;515149;28;1686;-80
2022/05/30 01:37:48;;;;;;;4.73;4.20;;;;;;;;;;515670;28;1494;-80
2022/05/30 01:38:04;;;;;;;5.38;4.55;;;;;;;;;;514711;28;1523;-80
2022/05/30 01:38:21;;;;;;;5.37;4.60;;;;;;;;;;516300;28;1495;-79
2022/05/30 01:38:36;;;;;;;5.47;4.15;;;;;;;;;;514430;28;1932;-80
2022/05/30 01:38:52;;;;;;;4.80;3.92;;;;;;;;;;514867;28;1561;-80
2022/05/30 01:39:07;;;;;;;4.57;4.17;;;;;;;;;;514912;28;1489;-80
2022/05/30 01:39:23;;;;;;;4.57;4.15;;;;;;;;;;514213;28;1601;-80
2022/05/30 01:39:38;;;;;;;5.00;4.10;;;;;;;;;;514069;28;1505;-80
2022/05/30 01:39:53;;;;;;;5.25;4.28;;;;;;;;;;512986;28;1465;-80
2022/05/30 01:40:09;;;;;;;4.70;4.20;;;;;;;;;;514742;28;1467;-80
2022/05/30 01:40:26;;;;;;;4.65;4.20;;;;;;;;;;515014;28;1478;-80
2022/05/30 01:40:41;;;;;;;4.55;4.15;;;;;;;;;;517298;28;1419;-80
2022/05/30 01:40:59;;;;;;;5.20;4.30;;;;;;;;;;514806;28;1573;-80
2022/05/30 01:41:14;;;;;;;7.93;4.63;;;;;;;;;;517430;28;1568;-80
2022/05/30 01:41:30;;;;;;;7.70;4.80;;;;;;;;;;517139;28;1804;-80
2022/05/30 01:41:46;;;;;;;5.55;4.68;;;;;;;;;;515202;28;1680;-82
2022/05/30 01:42:02;;;;;;;5.60;4.55;;;;;;;;;;515476;28;1475;-80
2022/05/30 01:42:18;;;;;;;6.33;4.50;;;;;;;;;;515361;28;1644;-80
2022/05/30 01:42:33;;;;;;;6.10;4.43;;;;;;;;;;515580;28;1646;-80
2022/05/30 01:42:48;;;;;;;5.30;4.50;;;;;;;;;;516828;28;1570;-80
2022/05/30 01:43:04;;;;;;;5.47;4.80;;;;;;;;;;515167;28;1604;-80
2022/05/30 01:43:20;;;;;;;5.47;4.63;;;;;;;;;;515482;28;1866;-80
2022/05/30 01:43:35;;;;;;;5.23;4.30;;;;;;;;;;517137;28;1463;-80
2022/05/30 01:43:50;;;;;;;4.50;4.03;;;;;;;;;;515043;28;1644;-80
2022/05/30 01:44:06;;;;;;;4.80;4.00;;;;;;;;;;513700;28;1617;-80
2022/05/30 01:44:21;;;;;;;4.85;4.22;;;;;;;;;;512878;28;1449;-80
2022/05/30 01:44:38;;;;;;;4.53;4.13;;;;;;;;;;515038;28;1518;-79
2022/05/30 01:44:54;;;;;;;5.35;4.43;;;;;;;;;;514850;28;1610;-79
2022/05/30 01:45:10;;;;;;;5.95;4.60;;;;;;;;;;517549;28;1629;-80
2022/05/30 01:45:26;;;;;;;5.95;4.32;;;;;;;;;;517029;28;1856;-80
2022/05/30 01:45:42;;;;;;;5.63;4.20;;;;;;;;;;515446;28;1545;-80
2022/05/30 01:46:04;;;;;;;4.53;3.85;;;;;;;;;;515246;28;1946;-79
2022/05/30 01:46:22;;;;;;;4.03;3.63;;;;;;;;;;516192;28;1476;-80
2022/05/30 01:46:38;;;;;;;4.20;3.72;;;;;;;;;;514444;28;1530;-80
2022/05/30 01:46:53;;;;;;;4.32;3.50;;;;;;;;;;515301;28;1510;-80
2022/05/30 01:47:09;;;;;;;4.50;3.50;;;;;;;;;;514692;28;1488;-80
2022/05/30 01:47:25;;;;;;;3.90;3.50;;;;;;;;;;515267;28;1441;-80
2022/05/30 01:47:40;;;;;;;3.92;3.55;;;;;;;;;;516354;28;1512;-80
2022/05/30 01:47:55;;;;;;;4.20;3.43;;;;;;;;;;518659;28;1569;-80
2022/05/30 01:48:11;;;;;;;4.33;3.40;;;;;;;;;;516699;28;1550;-80
2022/05/30 01:48:26;;;;;;;4.07;3.40;;;;;;;;;;517373;28;1401;-80
2022/05/30 01:48:42;;;;;;;4.30;3.33;;;;;;;;;;519183;28;1635;-80
2022/05/30 01:48:57;;;;;;;4.28;3.30;;;;;;;;;;518957;28;1534;-80
2022/05/30 01:49:12;;;;;;;3.57;3.20;;;;;;;;;;518643;28;1602;-80
2022/05/30 01:49:28;;;;;;;3.67;3.20;;;;;;;;;;516886;28;1676;-80
2022/05/30 01:49:43;;;;;;;3.60;3.27;;;;;;;;;;516906;28;1705;-80
2022/05/30 01:49:59;;;;;;;3.40;3.03;;;;;;;;;;517123;28;1769;-80
2022/05/30 01:50:15;;;;;;;5.20;3.10;;;;;;;;;;518511;28;1585;-79
2022/05/30 01:50:30;;;;;;;6.18;3.35;;;;;;;;;;519124;28;1403;-80
2022/05/30 01:50:47;;;;;;;4.73;3.40;;;;;;;;;;518540;28;1486;-80
2022/05/30 01:51:03;;;;;;;4.43;3.33;;;;;;;;;;516577;28;1449;-80
2022/05/30 01:51:20;;;;;;;4.82;3.30;;;;;;;;;;516925;28;1653;-80
2022/05/30 01:51:35;;;;;;;4.40;3.20;;;;;;;;;;516388;28;1491;-80
2022/05/30 01:51:54;;;;;;;3.53;3.20;;;;;;;;;;516970;28;1515;-79
2022/05/30 01:52:10;;;;;;;3.60;3.28;;;;;;;;;;514456;28;1369;-80
2022/05/30 01:52:25;;;;;;;3.72;3.22;;;;;;;;;;514638;28;1458;-80
2022/05/30 01:52:41;;;;;;;4.00;3.30;;;;;;;;;;515311;28;1700;-80
2022/05/30 01:52:56;;;;;;;3.95;3.45;;;;;;;;;;516629;28;1793;-80
2022/05/30 01:53:12;;;;;;;4.23;3.70;;;;;;;;;;516496;28;1957;-80
2022/05/30 01:53:28;;;;;;;4.22;3.70;;;;;;;;;;517628;28;1539;-80